Time;durP1;ratioP1;P1;durP2;ratioP2;P2;SDS_P1;SDS_P2;PMS_P1;PMS_P2;Temp;Humidity;BMP_temperature;BMP_pressure;BME280_temperature;BME280_humidity;BME280_pressure;Samples;Min_cycle;Max_cycle;Signal;HPM_P1;HPM_P2
2023/09/03 00:00:40;;;;;;;1.30;1.20;;;17.80;99.90;;;;;;5075076;28;20444;-81
2023/09/03 00:03:07;;;;;;;1.40;1.30;;;17.80;99.90;;;;;;5075428;28;20954;-81
2023/09/03 00:05:34;;;;;;;2.33;1.83;;;17.70;99.90;;;;;;5075378;28;20467;-81
2023/09/03 00:08:01;;;;;;;2.80;1.60;;;17.70;99.90;;;;;;5075568;28;20445;-81
2023/09/03 00:10:30;;;;;;;1.73;1.60;;;17.70;99.90;;;;;;5075471;28;20441;-81
2023/09/03 00:12:56;;;;;;;1.67;1.30;;;17.70;99.90;;;;;;5075602;28;20527;-81
2023/09/03 00:15:25;;;;;;;0.97;0.97;;;17.60;99.90;;;;;;5075433;28;20461;-81
2023/09/03 00:17:51;;;;;;;1.30;1.20;;;17.60;99.90;;;;;;5075154;28;20921;-81
2023/09/03 00:20:18;;;;;;;1.50;1.30;;;17.60;99.90;;;;;;5075447;28;20451;-81
2023/09/03 00:22:45;;;;;;;2.20;1.53;;;17.60;99.90;;;;;;5075228;28;20926;-81
2023/09/03 00:25:12;;;;;;;1.57;1.47;;;17.60;99.90;;;;;;5075259;28;20468;-81
2023/09/03 00:27:40;;;;;;;1.97;1.10;;;17.60;99.90;;;;;;5075091;28;20476;-81
2023/09/03 00:30:08;;;;;;;2.47;1.50;;;17.50;99.90;;;;;;5074966;28;20519;-81
2023/09/03 00:32:34;;;;;;;1.53;1.23;;;17.50;99.90;;;;;;5075052;28;20488;-80
2023/09/03 00:35:01;;;;;;;1.30;1.20;;;17.50;99.90;;;;;;5075070;28;20811;-80
2023/09/03 00:37:28;;;;;;;1.30;1.20;;;17.50;99.90;;;;;;5075078;28;20448;-80
2023/09/03 00:39:54;;;;;;;1.70;1.60;;;17.40;99.90;;;;;;5074765;28;20437;-80
2023/09/03 00:42:21;;;;;;;0.80;0.80;;;17.40;99.90;;;;;;5074986;28;20444;-80
2023/09/03 00:44:49;;;;;;;2.93;1.67;;;17.40;99.90;;;;;;5074777;28;20453;-80
2023/09/03 00:47:19;;;;;;;1.17;1.07;;;17.40;99.90;;;;;;5074810;28;20464;-81
2023/09/03 00:49:46;;;;;;;2.20;1.33;;;17.40;99.90;;;;;;5074904;28;20512;-81
2023/09/03 00:52:18;;;;;;;1.30;1.20;;;17.40;99.90;;;;;;5074704;28;20489;-80
2023/09/03 00:54:45;;;;;;;1.17;1.07;;;17.40;99.90;;;;;;5074755;28;20432;-80
2023/09/03 00:57:11;;;;;;;2.23;0.97;;;17.40;99.90;;;;;;5074381;28;20445;-81
2023/09/03 00:59:40;;;;;;;2.70;1.47;;;17.40;99.90;;;;;;5074380;28;20433;-81
2023/09/03 01:02:12;;;;;;;3.80;1.30;;;17.30;99.90;;;;;;5074337;28;20949;-81
2023/09/03 01:04:39;;;;;;;1.53;1.30;;;17.30;99.90;;;;;;5074283;28;20428;-81
2023/09/03 01:07:08;;;;;;;1.83;1.10;;;17.30;99.90;;;;;;5074354;28;20469;-81
2023/09/03 01:09:34;;;;;;;2.57;1.40;;;17.20;99.90;;;;;;5074426;28;20437;-80
2023/09/03 01:12:09;;;;;;;1.00;1.00;;;17.20;99.90;;;;;;5073722;28;20484;-80
2023/09/03 01:14:43;;;;;;;1.10;1.00;;;17.20;99.90;;;;;;5074294;28;20435;-80
2023/09/03 01:17:16;;;;;;;2.00;1.10;;;17.20;99.90;;;;;;5074221;28;20468;-80
2023/09/03 01:20:04;;;;;;;0.93;0.80;;;17.20;99.90;;;;;;5073947;28;20429;-80
2023/09/03 01:22:48;;;;;;;1.07;0.90;;;17.20;99.90;;;;;;5074200;28;20456;-80
2023/09/03 01:25:31;;;;;;;2.07;1.17;;;17.20;99.90;;;;;;5074156;28;20811;-80
2023/09/03 01:28:13;;;;;;;1.57;1.17;;;17.20;99.90;;;;;;5073819;28;20487;-80
2023/09/03 01:30:40;;;;;;;1.60;1.07;;;17.10;99.90;;;;;;5073834;28;20410;-80
2023/09/03 01:33:08;;;;;;;1.33;1.10;;;17.10;99.90;;;;;;5073947;28;20488;-80
2023/09/03 01:35:37;;;;;;;1.33;0.87;;;17.10;99.90;;;;;;5073857;28;20475;-80
2023/09/03 01:38:04;;;;;;;2.20;1.03;;;17.00;99.90;;;;;;5073943;28;20861;-81
2023/09/03 01:40:31;;;;;;;1.23;0.93;;;17.00;99.90;;;;;;5073737;28;20449;-81
2023/09/03 01:42:57;;;;;;;2.03;1.50;;;17.00;99.90;;;;;;5073847;28;20437;-80
2023/09/03 01:45:33;;;;;;;2.03;1.37;;;17.00;99.90;;;;;;5073724;28;20465;-80
2023/09/03 01:48:10;;;;;;;1.03;0.93;;;17.00;99.90;;;;;;5073491;28;20889;-80
2023/09/03 01:50:47;;;;;;;1.30;1.20;;;17.00;99.90;;;;;;5073746;28;20433;-80
2023/09/03 01:53:20;;;;;;;2.10;1.53;;;17.00;99.90;;;;;;5073652;28;20836;-80
2023/09/03 01:55:54;;;;;;;1.90;1.20;;;17.00;99.90;;;;;;5073634;28;20464;-80
2023/09/03 01:58:24;;;;;;;1.17;1.17;;;17.00;99.90;;;;;;5073362;28;20479;-80
2023/09/03 02:00:54;;;;;;;1.10;1.10;;;17.00;99.90;;;;;;5073249;28;20452;-80
2023/09/03 02:03:23;;;;;;;1.00;0.90;;;17.00;99.90;;;;;;5073219;28;20441;-80
2023/09/03 02:05:50;;;;;;;1.33;1.23;;;17.00;99.90;;;;;;5073482;28;20461;-80
2023/09/03 02:08:17;;;;;;;2.97;1.03;;;17.00;99.90;;;;;;5073552;28;20452;-81
2023/09/03 02:10:44;;;;;;;2.30;1.33;;;17.00;99.90;;;;;;5073443;28;20447;-80
2023/09/03 02:13:10;;;;;;;2.00;1.20;;;17.00;99.90;;;;;;5073015;28;21031;-80
2023/09/03 02:15:37;;;;;;;1.70;1.60;;;17.00;99.90;;;;;;5073043;28;20464;-80
2023/09/03 02:18:06;;;;;;;5.40;1.70;;;17.00;99.90;;;;;;5073348;28;20456;-80
2023/09/03 02:20:33;;;;;;;1.00;1.00;;;16.90;99.90;;;;;;5073080;28;20483;-80
2023/09/03 02:22:59;;;;;;;3.07;1.20;;;16.90;99.90;;;;;;5073286;28;20444;-80
2023/09/03 02:25:26;;;;;;;1.40;1.30;;;16.80;99.90;;;;;;5072797;28;20453;-80
2023/09/03 02:27:53;;;;;;;1.27;1.17;;;16.80;99.90;;;;;;5072772;28;21011;-80
2023/09/03 02:30:20;;;;;;;1.47;1.37;;;16.80;99.90;;;;;;5073239;28;20528;-81
2023/09/03 02:32:47;;;;;;;1.43;1.27;;;16.80;99.90;;;;;;5073174;28;20477;-81
2023/09/03 02:35:15;;;;;;;3.03;1.50;;;16.80;99.90;;;;;;5073116;28;20469;-81
2023/09/03 02:37:42;;;;;;;1.20;1.07;;;16.80;99.90;;;;;;5072851;28;20960;-81
2023/09/03 02:40:09;;;;;;;1.20;1.10;;;16.80;99.90;;;;;;5073150;28;20447;-81
2023/09/03 02:42:36;;;;;;;1.27;1.17;;;16.80;99.90;;;;;;5073116;28;20441;-80
2023/09/03 02:45:04;;;;;;;1.73;1.20;;;16.70;99.90;;;;;;5073018;28;20452;-80
2023/09/03 02:47:30;;;;;;;1.53;1.43;;;16.70;99.90;;;;;;5073051;28;20452;-80
2023/09/03 02:49:57;;;;;;;2.10;1.20;;;16.70;99.90;;;;;;5072803;28;20443;-80
2023/09/03 02:52:25;;;;;;;1.47;1.37;;;16.70;99.90;;;;;;5072601;28;20489;-80
2023/09/03 02:54:52;;;;;;;1.53;1.13;;;16.70;99.90;;;;;;5073445;28;20448;-80
2023/09/03 02:57:19;;;;;;;1.60;1.50;;;16.70;99.90;;;;;;5072995;28;20456;-80
2023/09/03 02:59:46;;;;;;;1.60;1.50;;;16.70;99.90;;;;;;5072981;28;20433;-81
2023/09/03 03:02:12;;;;;;;1.50;1.40;;;16.70;99.90;;;;;;5072958;28;20452;-81
2023/09/03 03:04:39;;;;;;;2.23;1.50;;;16.70;99.90;;;;;;5072576;28;20950;-81
2023/09/03 03:07:06;;;;;;;2.10;1.37;;;16.70;99.90;;;;;;5072767;28;20464;-81
2023/09/03 03:09:34;;;;;;;1.10;0.90;;;16.70;99.90;;;;;;5072865;28;20452;-80
2023/09/03 03:12:00;;;;;;;1.00;0.70;;;16.70;99.90;;;;;;5072759;28;20480;-81
2023/09/03 03:14:27;;;;;;;1.20;1.10;;;16.70;99.90;;;;;;5072537;28;20934;-80
2023/09/03 03:16:54;;;;;;;1.17;1.00;;;16.60;99.90;;;;;;5072443;28;20463;-80
2023/09/03 03:19:21;;;;;;;1.20;0.80;;;16.60;99.90;;;;;;5072439;28;20788;-80
2023/09/03 03:21:47;;;;;;;0.60;0.60;;;16.60;99.90;;;;;;5072397;28;20464;-80
2023/09/03 03:24:14;;;;;;;1.40;1.30;;;16.60;99.90;;;;;;5072736;28;20436;-80
2023/09/03 03:26:42;;;;;;;2.07;1.60;;;16.60;99.90;;;;;;5072392;28;20465;-80
2023/09/03 03:29:09;;;;;;;2.57;1.00;;;16.60;99.90;;;;;;5072188;28;20986;-80
2023/09/03 03:31:36;;;;;;;1.57;1.17;;;16.50;99.90;;;;;;5072304;28;20942;-80
2023/09/03 03:34:03;;;;;;;1.77;1.27;;;16.50;99.90;;;;;;5072600;28;20456;-80
2023/09/03 03:36:30;;;;;;;1.60;1.27;;;16.50;99.90;;;;;;5074110;28;20829;-80
2023/09/03 03:38:57;;;;;;;4.50;1.33;;;16.50;99.90;;;;;;5075915;28;20498;-80
2023/09/03 03:41:24;;;;;;;0.73;0.73;;;16.50;99.90;;;;;;5076178;28;20449;-80
2023/09/03 03:43:52;;;;;;;0.90;0.80;;;16.50;99.90;;;;;;5076076;28;20488;-80
2023/09/03 03:46:20;;;;;;;2.70;1.20;;;16.50;99.90;;;;;;5075985;28;20465;-80
2023/09/03 03:48:48;;;;;;;1.00;0.87;;;16.60;99.90;;;;;;5075748;28;20956;-80
2023/09/03 03:51:16;;;;;;;2.83;1.13;;;16.50;99.90;;;;;;5075978;28;20452;-80
2023/09/03 03:53:43;;;;;;;1.30;1.10;;;16.50;99.90;;;;;;5075703;28;20441;-80
2023/09/03 03:56:10;;;;;;;1.27;1.10;;;16.50;99.90;;;;;;5075891;28;20574;-80
2023/09/03 03:58:39;;;;;;;1.33;1.23;;;16.50;99.90;;;;;;5075527;28;20513;-80
2023/09/03 04:01:13;;;;;;;0.83;0.83;;;16.50;99.90;;;;;;5075803;28;20445;-80
2023/09/03 04:03:40;;;;;;;1.17;1.07;;;16.50;99.90;;;;;;5076227;28;20465;-80
2023/09/03 04:06:06;;;;;;;1.33;1.10;;;16.50;99.90;;;;;;5075377;28;20981;-80
2023/09/03 04:08:36;;;;;;;1.33;1.23;;;16.50;99.90;;;;;;5075477;28;20437;-80
2023/09/03 04:11:05;;;;;;;1.00;0.90;;;16.50;99.90;;;;;;5075639;28;20447;-81
2023/09/03 04:13:33;;;;;;;1.33;1.23;;;16.50;99.90;;;;;;5075611;28;20440;-80
2023/09/03 04:16:00;;;;;;;1.23;0.90;;;16.50;99.90;;;;;;5075469;28;20498;-80
2023/09/03 04:18:28;;;;;;;0.83;0.83;;;16.50;99.90;;;;;;5075489;28;20437;-80
2023/09/03 04:20:57;;;;;;;2.03;1.10;;;16.50;99.90;;;;;;5075177;28;20441;-80
2023/09/03 04:23:24;;;;;;;1.10;1.00;;;16.50;99.90;;;;;;5075059;28;20476;-80
2023/09/03 04:25:52;;;;;;;1.20;1.00;;;16.50;99.90;;;;;;5075310;28;20832;-80
2023/09/03 04:28:19;;;;;;;1.20;1.10;;;16.50;99.90;;;;;;5074863;28;20522;-80
2023/09/03 04:30:45;;;;;;;1.43;0.80;;;16.50;99.90;;;;;;5075247;28;20445;-80
2023/09/03 04:33:12;;;;;;;1.17;1.10;;;16.50;99.90;;;;;;5075242;28;20441;-80
2023/09/03 04:35:40;;;;;;;1.87;1.20;;;16.50;99.90;;;;;;5075131;28;20231;-80
2023/09/03 04:38:06;;;;;;;3.10;1.37;;;16.50;99.90;;;;;;5074844;28;20447;-80
2023/09/03 04:40:35;;;;;;;0.70;0.70;;;16.50;99.90;;;;;;5075072;28;20445;-80
2023/09/03 04:43:01;;;;;;;1.73;1.00;;;16.50;99.90;;;;;;5074749;28;20473;-80
2023/09/03 04:45:29;;;;;;;4.43;1.10;;;16.50;99.90;;;;;;5074575;28;20461;-80
2023/09/03 04:47:56;;;;;;;4.20;1.17;;;16.40;99.90;;;;;;5074876;28;20445;-80
2023/09/03 04:50:23;;;;;;;1.40;1.30;;;16.40;99.90;;;;;;5074868;28;20460;-80
2023/09/03 04:52:51;;;;;;;1.20;1.10;;;16.40;99.90;;;;;;5074491;28;20968;-80
2023/09/03 04:55:18;;;;;;;0.83;0.83;;;16.50;99.90;;;;;;5074681;28;20469;-80
2023/09/03 04:57:44;;;;;;;0.70;0.70;;;16.50;99.90;;;;;;5074728;28;20444;-80
2023/09/03 05:00:12;;;;;;;1.70;1.27;;;16.40;99.90;;;;;;5074656;28;20452;-80
2023/09/03 05:02:39;;;;;;;1.33;1.10;;;16.50;99.90;;;;;;5074527;28;20481;-80
2023/09/03 05:05:07;;;;;;;1.63;1.37;;;16.50;99.90;;;;;;5074187;28;20953;-80
2023/09/03 05:07:34;;;;;;;3.10;1.13;;;16.50;99.90;;;;;;5074180;28;20961;-81
2023/09/03 05:10:02;;;;;;;1.87;1.50;;;16.50;99.90;;;;;;5074703;28;20950;-81
2023/09/03 05:12:29;;;;;;;2.10;1.30;;;16.50;99.90;;;;;;5074105;28;20452;-80
2023/09/03 05:14:55;;;;;;;1.43;1.30;;;16.50;99.90;;;;;;5074293;28;20445;-80
2023/09/03 05:17:22;;;;;;;2.80;1.33;;;16.50;99.90;;;;;;5074287;28;20445;-80
2023/09/03 05:19:49;;;;;;;1.93;1.13;;;16.40;99.90;;;;;;5074012;28;20438;-80
2023/09/03 05:22:16;;;;;;;3.37;1.47;;;16.40;99.90;;;;;;5074133;28;20444;-80
2023/09/03 05:24:43;;;;;;;3.50;1.67;;;16.50;99.90;;;;;;5074192;28;20485;-80
2023/09/03 05:27:11;;;;;;;0.93;0.93;;;16.50;99.90;;;;;;5074084;28;20460;-80
2023/09/03 05:29:37;;;;;;;1.30;1.00;;;16.60;99.90;;;;;;5073574;28;20475;-80
2023/09/03 05:32:05;;;;;;;2.47;1.67;;;16.60;99.90;;;;;;5074075;28;20445;-80
2023/09/03 05:34:32;;;;;;;0.80;0.80;;;16.60;99.90;;;;;;5073757;28;20437;-80
2023/09/03 05:36:58;;;;;;;1.77;1.20;;;16.60;99.90;;;;;;5073876;28;20480;-80
2023/09/03 05:39:26;;;;;;;1.03;0.97;;;16.70;99.90;;;;;;5073640;28;20439;-81
2023/09/03 05:41:53;;;;;;;1.63;1.00;;;16.70;99.90;;;;;;5074089;28;20477;-80
2023/09/03 05:44:21;;;;;;;1.60;1.33;;;16.70;99.90;;;;;;5073748;28;20484;-80
2023/09/03 05:46:48;;;;;;;1.57;1.47;;;16.70;99.90;;;;;;5073711;28;20464;-80
2023/09/03 05:49:15;;;;;;;2.30;1.60;;;16.80;99.90;;;;;;5073754;28;20445;-80
2023/09/03 05:51:42;;;;;;;2.03;1.10;;;16.80;99.90;;;;;;5073458;28;20444;-81
2023/09/03 05:54:08;;;;;;;2.00;1.40;;;16.80;99.90;;;;;;5073662;28;20441;-81
2023/09/03 05:56:35;;;;;;;1.90;1.43;;;16.90;99.90;;;;;;5073393;28;20486;-81
2023/09/03 05:59:05;;;;;;;1.17;1.10;;;16.90;99.90;;;;;;5073184;28;20451;-80
2023/09/03 06:01:33;;;;;;;1.43;0.90;;;16.90;99.90;;;;;;5073544;28;20456;-81
2023/09/03 06:04:04;;;;;;;1.50;1.40;;;16.90;99.90;;;;;;5073468;28;20850;-81
2023/09/03 06:06:36;;;;;;;0.80;0.80;;;17.00;99.90;;;;;;5073683;28;20515;-80
2023/09/03 06:09:03;;;;;;;1.30;1.00;;;17.10;99.90;;;;;;5073540;28;20437;-81
2023/09/03 06:11:29;;;;;;;2.40;1.10;;;17.10;99.90;;;;;;5073091;28;20539;-81
2023/09/03 06:13:56;;;;;;;2.13;1.30;;;17.20;99.90;;;;;;5073178;28;20437;-81
2023/09/03 06:16:23;;;;;;;1.60;1.50;;;17.30;99.90;;;;;;5073285;28;20465;-81
2023/09/03 06:18:51;;;;;;;1.70;1.27;;;17.40;99.90;;;;;;5073372;28;20437;-81
2023/09/03 06:21:18;;;;;;;1.30;1.20;;;17.50;99.90;;;;;;5072995;28;20973;-80
2023/09/03 06:23:44;;;;;;;2.20;1.20;;;17.60;99.90;;;;;;5073236;28;20476;-81
2023/09/03 06:26:11;;;;;;;1.83;1.20;;;17.70;99.90;;;;;;5073233;28;20472;-80
2023/09/03 06:28:38;;;;;;;3.63;1.20;;;17.80;99.90;;;;;;5072902;28;20478;-80
2023/09/03 06:31:05;;;;;;;1.33;1.07;;;17.80;99.90;;;;;;5072988;28;20439;-80
2023/09/03 06:33:31;;;;;;;1.90;1.30;;;18.00;99.90;;;;;;5073179;28;20443;-80
2023/09/03 06:35:59;;;;;;;1.20;1.10;;;18.10;99.90;;;;;;5073156;28;20461;-81
2023/09/03 06:38:26;;;;;;;1.50;1.20;;;18.20;99.90;;;;;;5073207;28;20436;-80
2023/09/03 06:40:53;;;;;;;1.57;1.17;;;18.40;99.90;;;;;;5072986;28;20799;-80
2023/09/03 06:43:20;;;;;;;1.50;1.00;;;18.30;99.90;;;;;;5073059;28;20480;-80
2023/09/03 06:45:46;;;;;;;1.53;1.17;;;18.30;99.90;;;;;;5072930;28;20452;-81
2023/09/03 06:48:13;;;;;;;2.50;1.80;;;18.30;99.90;;;;;;5072821;28;20527;-81
2023/09/03 06:50:41;;;;;;;1.10;1.00;;;18.30;99.90;;;;;;5072745;28;20450;-80
2023/09/03 06:53:10;;;;;;;1.30;1.20;;;18.30;99.90;;;;;;5072667;28;20441;-81
2023/09/03 06:55:37;;;;;;;3.13;1.17;;;18.30;99.90;;;;;;5072871;28;20829;-80
2023/09/03 06:58:04;;;;;;;3.33;1.33;;;18.40;99.90;;;;;;5072690;28;20444;-80
2023/09/03 07:00:31;;;;;;;1.53;1.10;;;18.50;99.90;;;;;;5072944;28;20449;-80
2023/09/03 07:02:58;;;;;;;1.63;1.30;;;18.50;99.90;;;;;;5072525;28;20537;-81
2023/09/03 07:05:25;;;;;;;2.40;1.53;;;18.60;99.90;;;;;;5072596;28;20453;-80
2023/09/03 07:07:51;;;;;;;1.27;1.17;;;18.70;99.90;;;;;;5072885;28;20459;-80
2023/09/03 07:10:20;;;;;;;3.87;1.43;;;18.70;99.90;;;;;;5072641;28;20448;-80
2023/09/03 07:12:46;;;;;;;1.50;1.07;;;18.80;99.90;;;;;;5076384;28;20447;-81
2023/09/03 07:15:13;;;;;;;2.13;1.77;;;18.90;99.90;;;;;;5076556;28;20464;-80
2023/09/03 07:17:40;;;;;;;1.10;1.10;;;19.00;99.90;;;;;;5076644;28;20444;-81
2023/09/03 07:20:08;;;;;;;2.30;1.03;;;19.10;99.90;;;;;;5076436;28;20830;-81
2023/09/03 07:22:35;;;;;;;3.33;1.40;;;19.20;99.90;;;;;;5076435;28;20436;-81
2023/09/03 07:25:01;;;;;;;1.73;1.43;;;19.20;99.90;;;;;;5076049;28;21000;-80
2023/09/03 07:27:30;;;;;;;2.70;0.80;;;19.30;99.90;;;;;;5075959;28;20942;-80
2023/09/03 07:29:57;;;;;;;2.93;1.00;;;19.30;99.90;;;;;;5076118;28;21013;-80
2023/09/03 07:32:24;;;;;;;3.33;1.03;;;19.40;99.90;;;;;;5076365;28;20451;-81
2023/09/03 07:34:51;;;;;;;2.97;1.27;;;19.40;99.90;;;;;;5076308;28;20433;-81
2023/09/03 07:37:18;;;;;;;1.43;1.33;;;19.40;99.90;;;;;;5076255;28;20444;-81
2023/09/03 07:39:46;;;;;;;0.83;0.80;;;19.40;99.90;;;;;;5076258;28;20516;-81
2023/09/03 07:42:13;;;;;;;2.10;1.33;;;19.50;99.90;;;;;;5076267;28;20421;-80
2023/09/03 07:44:41;;;;;;;1.83;1.00;;;19.60;99.90;;;;;;5075776;28;20471;-81
2023/09/03 07:47:08;;;;;;;1.00;0.90;;;19.60;99.90;;;;;;5076040;28;20468;-81
2023/09/03 07:49:34;;;;;;;1.03;0.70;;;19.70;99.90;;;;;;5076046;28;20448;-80
2023/09/03 07:52:01;;;;;;;1.00;1.00;;;19.80;99.90;;;;;;5075660;28;20921;-81
2023/09/03 07:54:28;;;;;;;1.20;0.90;;;20.00;99.90;;;;;;5075696;28;20424;-81
2023/09/03 07:56:55;;;;;;;1.60;1.37;;;20.00;99.90;;;;;;5075831;28;20465;-80
2023/09/03 07:59:22;;;;;;;1.40;1.30;;;20.10;99.90;;;;;;5076272;28;20843;-81
2023/09/03 08:01:50;;;;;;;1.83;1.40;;;20.20;99.90;;;;;;5076033;28;20459;-80
2023/09/03 08:04:16;;;;;;;2.53;1.40;;;20.20;99.90;;;;;;5075501;28;20472;-80
2023/09/03 08:06:43;;;;;;;2.17;1.27;;;20.20;99.90;;;;;;5075342;28;20460;-80
2023/09/03 08:09:10;;;;;;;1.23;1.13;;;20.30;99.90;;;;;;5075709;28;20445;-81
2023/09/03 08:11:36;;;;;;;1.03;0.90;;;20.40;99.90;;;;;;5075675;28;20452;-81
2023/09/03 08:14:03;;;;;;;1.37;1.27;;;20.40;99.90;;;;;;5075658;28;20440;-81
2023/09/03 08:16:30;;;;;;;1.10;1.00;;;20.50;99.90;;;;;;5075167;28;21014;-80
2023/09/03 08:18:58;;;;;;;1.90;1.50;;;20.60;99.90;;;;;;5075582;28;20435;-81
2023/09/03 08:21:25;;;;;;;0.87;0.87;;;20.70;99.90;;;;;;5075138;28;20436;-81
2023/09/03 08:23:52;;;;;;;1.73;1.20;;;20.80;99.90;;;;;;5075074;28;21000;-81
2023/09/03 08:26:19;;;;;;;2.43;1.20;;;21.00;99.90;;;;;;5075082;28;20453;-81
2023/09/03 08:28:46;;;;;;;2.00;0.80;;;21.10;99.90;;;;;;5075051;28;20845;-81
2023/09/03 08:31:13;;;;;;;1.13;1.03;;;21.20;99.90;;;;;;5075307;28;20452;-80
2023/09/03 08:33:40;;;;;;;1.80;1.23;;;21.30;99.90;;;;;;5075236;28;20448;-81
2023/09/03 08:36:08;;;;;;;1.17;1.07;;;21.40;99.90;;;;;;5074817;28;21001;-80
2023/09/03 08:38:35;;;;;;;1.83;1.20;;;21.50;99.90;;;;;;5075134;28;20439;-80
2023/09/03 08:41:02;;;;;;;1.17;0.80;;;21.60;99.90;;;;;;5074792;28;20809;-81
2023/09/03 08:43:30;;;;;;;1.57;0.90;;;21.60;99.90;;;;;;5074636;28;20480;-81
2023/09/03 08:46:02;;;;;;;1.13;1.03;;;21.60;99.90;;;;;;5074915;28;20464;-80
2023/09/03 08:48:29;;;;;;;2.20;1.23;;;21.70;99.90;;;;;;5075027;28;20482;-80
2023/09/03 08:50:56;;;;;;;1.57;1.47;;;21.80;99.90;;;;;;5074956;28;20447;-81
2023/09/03 08:53:25;;;;;;;1.30;1.20;;;22.00;99.90;;;;;;5074860;28;20820;-80
2023/09/03 08:55:52;;;;;;;1.60;1.27;;;22.10;99.90;;;;;;5074742;28;20483;-80
2023/09/03 08:58:19;;;;;;;1.53;1.10;;;22.30;99.90;;;;;;5074777;28;20440;-80
2023/09/03 09:00:46;;;;;;;2.80;1.47;;;22.40;99.90;;;;;;5074724;28;20558;-80
2023/09/03 09:03:15;;;;;;;1.47;1.37;;;22.60;99.90;;;;;;5074328;28;20435;-81
2023/09/03 09:05:43;;;;;;;0.93;0.90;;;22.80;99.90;;;;;;5074478;28;20464;-80
2023/09/03 09:08:10;;;;;;;1.10;1.10;;;22.90;99.90;;;;;;5074552;28;20209;-80
2023/09/03 09:10:43;;;;;;;1.23;1.13;;;23.10;99.90;;;;;;5074550;28;20567;-81
2023/09/03 09:13:12;;;;;;;1.50;1.40;;;23.20;99.90;;;;;;5074194;28;20186;-80
2023/09/03 09:15:42;;;;;;;1.03;1.03;;;23.30;99.90;;;;;;5074114;28;20717;-80
2023/09/03 09:18:10;;;;;;;0.82;0.73;;;23.40;99.90;;;;;;5074379;28;20214;-80
2023/09/03 09:20:39;;;;;;;0.88;0.88;;;23.50;99.90;;;;;;5074290;28;20198;-80
2023/09/03 09:23:07;;;;;;;1.08;0.90;;;23.70;99.90;;;;;;5074338;28;20187;-80
2023/09/03 09:25:34;;;;;;;2.05;0.90;;;24.10;99.90;;;;;;5074049;28;20234;-80
2023/09/03 09:28:11;;;;;;;1.10;1.10;;;24.20;99.90;;;;;;5073651;28;20236;-81
2023/09/03 09:30:51;;;;;;;1.00;0.77;;;24.20;99.90;;;;;;5074192;28;20236;-80
2023/09/03 09:33:18;;;;;;;0.90;0.90;;;24.30;99.90;;;;;;5073147;28;20186;-80
2023/09/03 09:35:45;;;;;;;1.55;0.85;;;24.30;99.90;;;;;;5074035;28;20230;-80
2023/09/03 09:38:11;;;;;;;0.85;0.85;;;24.50;99.90;;;;;;5073975;28;20197;-80
2023/09/03 09:40:38;;;;;;;0.85;0.82;;;24.40;99.90;;;;;;5073660;28;20205;-80
2023/09/03 09:43:07;;;;;;;0.90;0.90;;;24.60;99.90;;;;;;5073551;28;20666;-80
2023/09/03 09:45:44;;;;;;;2.90;0.90;;;24.40;99.90;;;;;;5073334;28;20237;-80
2023/09/03 09:48:12;;;;;;;1.60;0.70;;;24.40;99.90;;;;;;5074083;28;20623;-80
2023/09/03 09:50:40;;;;;;;0.77;0.77;;;24.30;99.90;;;;;;5073632;28;20294;-80
2023/09/03 09:53:22;;;;;;;0.60;0.60;;;24.40;99.90;;;;;;5073425;28;20202;-80
2023/09/03 09:55:58;;;;;;;0.95;0.75;;;24.40;99.90;;;;;;5073674;28;20221;-80
2023/09/03 09:58:35;;;;;;;0.70;0.70;;;24.60;99.90;;;;;;5073701;28;20186;-80
2023/09/03 10:01:02;;;;;;;0.93;0.70;;;24.70;99.90;;;;;;5073379;28;20643;-80
2023/09/03 10:03:41;;;;;;;2.72;0.68;;;24.70;99.90;;;;;;5073464;28;20229;-80
2023/09/03 10:06:09;;;;;;;0.65;0.65;;;24.80;99.90;;;;;;5073536;28;20253;-80
2023/09/03 10:08:36;;;;;;;0.80;0.80;;;24.90;99.90;;;;;;5073196;28;20667;-80
2023/09/03 10:11:03;;;;;;;0.60;0.60;;;24.80;99.90;;;;;;5073508;28;20309;-80
2023/09/03 10:13:32;;;;;;;0.60;0.60;;;24.90;99.90;;;;;;5073177;28;20202;-80
2023/09/03 10:16:03;;;;;;;0.60;0.60;;;24.90;99.90;;;;;;5073308;28;20217;-80
2023/09/03 10:18:32;;;;;;;0.60;0.60;;;24.90;99.90;;;;;;5073231;28;20181;-80
2023/09/03 10:21:01;;;;;;;2.85;0.70;;;24.70;99.90;;;;;;5073378;28;20213;-79
2023/09/03 10:23:29;;;;;;;0.60;0.60;;;24.70;99.90;;;;;;5073079;28;20563;-79
2023/09/03 10:25:58;;;;;;;1.13;0.80;;;24.70;99.90;;;;;;5073217;28;20233;-79
2023/09/03 10:28:27;;;;;;;0.75;0.60;;;24.60;99.90;;;;;;5072991;28;20230;-79
2023/09/03 10:30:56;;;;;;;0.50;0.50;;;24.60;99.90;;;;;;5073011;28;20197;-79
2023/09/03 10:33:23;;;;;;;0.50;0.50;;;24.60;99.90;;;;;;5073245;28;20206;-80
2023/09/03 10:36:14;;;;;;;1.23;0.90;;;24.50;99.90;;;;;;5072912;28;20229;-80
2023/09/03 10:38:41;;;;;;;6.57;0.80;;;24.50;99.90;;;;;;5073032;28;20182;-80
2023/09/03 10:41:19;;;;;;;0.77;0.73;;;24.40;99.90;;;;;;5073885;28;20233;-79
2023/09/03 10:43:46;;;;;;;0.60;0.60;;;24.50;99.90;;;;;;5073104;28;20205;-79
2023/09/03 10:46:14;;;;;;;0.60;0.60;;;24.60;99.90;;;;;;5076510;28;20256;-79
2023/09/03 10:48:50;;;;;;;0.60;0.60;;;24.80;99.90;;;;;;5076991;28;20201;-79
2023/09/03 10:51:32;;;;;;;0.70;0.70;;;24.90;99.90;;;;;;5076988;28;20635;-80
2023/09/03 10:54:15;;;;;;;0.50;0.50;;;25.00;99.90;;;;;;5077194;28;20192;-80
2023/09/03 10:57:15;;;;;;;1.63;0.90;;;25.00;99.90;;;;;;5077075;28;20225;-80
2023/09/03 11:00:13;;;;;;;0.60;0.60;;;25.20;99.90;;;;;;5076772;28;20661;-79
2023/09/03 11:02:42;;;;;;;1.40;0.85;;;25.40;99.90;;;;;;5076733;28;20205;-79
2023/09/03 11:05:19;;;;;;;0.60;0.60;;;25.40;99.90;;;;;;5076494;28;20703;-79
2023/09/03 11:07:46;;;;;;;0.50;0.50;;;25.50;99.90;;;;;;5076961;28;20225;-80
2023/09/03 11:10:41;;;;;;;0.60;0.60;;;25.50;99.90;;;;;;5076620;28;20198;-79
2023/09/03 11:13:10;;;;;;;0.82;0.60;;;25.60;99.90;;;;;;5076532;28;20193;-79
2023/09/03 11:15:37;;;;;;;1.85;0.77;;;25.60;99.90;;;;;;5076674;28;20214;-80
2023/09/03 11:18:06;;;;;;;0.73;0.73;;;25.60;99.90;;;;;;5076353;28;20579;-79
2023/09/03 11:20:35;;;;;;;0.70;0.70;;;25.50;99.90;;;;;;5076576;28;20202;-80
2023/09/03 11:23:03;;;;;;;0.70;0.50;;;25.40;99.90;;;;;;5076323;28;20198;-80
2023/09/03 11:25:35;;;;;;;0.60;0.60;;;25.30;99.90;;;;;;5076139;28;20226;-80
2023/09/03 11:28:01;;;;;;;0.60;0.50;;;25.30;99.90;;;;;;5076125;28;20740;-80
2023/09/03 11:30:28;;;;;;;0.70;0.68;;;25.10;99.90;;;;;;5076439;28;20214;-80
2023/09/03 11:32:55;;;;;;;0.65;0.65;;;25.00;99.90;;;;;;5076395;28;20206;-80
2023/09/03 11:35:25;;;;;;;0.75;0.75;;;24.90;99.90;;;;;;5075984;28;20710;-80
2023/09/03 11:37:54;;;;;;;0.93;0.90;;;24.90;99.90;;;;;;5076144;28;20568;-80
2023/09/03 11:40:24;;;;;;;0.60;0.60;;;25.10;99.90;;;;;;5076255;28;20208;-80
2023/09/03 11:42:51;;;;;;;0.70;0.70;;;25.20;99.90;;;;;;5076004;28;20183;-81
2023/09/03 11:45:18;;;;;;;0.77;0.77;;;25.10;99.90;;;;;;5076018;28;20225;-80
2023/09/03 11:47:48;;;;;;;0.50;0.50;;;25.10;99.90;;;;;;5076171;28;20577;-80
2023/09/03 11:50:16;;;;;;;0.70;0.70;;;25.10;99.90;;;;;;5076100;28;20190;-80
2023/09/03 11:52:49;;;;;;;1.00;0.90;;;25.00;99.90;;;;;;5076011;28;20206;-80
2023/09/03 11:55:16;;;;;;;0.60;0.60;;;24.90;99.90;;;;;;5076465;28;20218;-80
2023/09/03 11:57:46;;;;;;;0.60;0.60;;;24.90;99.90;;;;;;5075226;28;20204;-80
2023/09/03 12:00:15;;;;;;;0.70;0.70;;;25.00;99.90;;;;;;5076097;28;20198;-81
2023/09/03 12:02:43;;;;;;;0.60;0.60;;;25.10;99.90;;;;;;5075515;28;20201;-80
2023/09/03 12:05:12;;;;;;;0.60;0.55;;;25.10;99.90;;;;;;5075617;28;20228;-79
2023/09/03 12:07:39;;;;;;;2.63;0.85;;;25.00;99.90;;;;;;5075715;28;20198;-80
2023/09/03 12:10:09;;;;;;;0.80;0.80;;;24.80;99.90;;;;;;5076748;28;20202;-80
2023/09/03 12:12:36;;;;;;;0.60;0.60;;;24.70;99.90;;;;;;5077115;28;20187;-80
2023/09/03 12:15:17;;;;;;;1.25;0.90;;;24.70;99.90;;;;;;5075601;28;20198;-80
2023/09/03 12:17:44;;;;;;;0.80;0.80;;;24.80;99.90;;;;;;5075343;28;20701;-80
2023/09/03 12:20:31;;;;;;;1.00;0.90;;;24.90;99.90;;;;;;5075209;28;20206;-80
2023/09/03 12:23:07;;;;;;;0.65;0.65;;;24.70;99.90;;;;;;5075187;28;20670;-80
2023/09/03 12:25:35;;;;;;;0.90;0.80;;;24.70;99.90;;;;;;5075334;28;20229;-80
2023/09/03 12:28:04;;;;;;;0.82;0.82;;;24.60;99.90;;;;;;5075068;28;20237;-80
2023/09/03 12:30:56;;;;;;;0.50;0.50;;;24.60;99.90;;;;;;5074954;28;20297;-80
2023/09/03 12:33:23;;;;;;;0.60;0.60;;;24.60;99.90;;;;;;5075974;28;20208;-80
2023/09/03 12:36:09;;;;;;;3.72;0.80;;;24.60;99.90;;;;;;5074914;28;20225;-80
2023/09/03 12:38:56;;;;;;;0.70;0.70;;;24.70;99.90;;;;;;5074871;28;20654;-80
2023/09/03 12:41:26;;;;;;;1.75;0.82;;;24.70;99.90;;;;;;5075178;28;20255;-80
2023/09/03 12:43:53;;;;;;;1.52;0.98;;;24.60;99.90;;;;;;5075079;28;20206;-80
2023/09/03 12:46:20;;;;;;;0.98;0.75;;;24.50;99.90;;;;;;5074597;28;20229;-80
2023/09/03 12:48:47;;;;;;;0.68;0.68;;;24.40;99.90;;;;;;5074735;28;20194;-80
2023/09/03 12:51:16;;;;;;;1.45;0.80;;;24.30;99.90;;;;;;5074679;28;20198;-80
2023/09/03 12:53:44;;;;;;;0.82;0.82;;;24.30;99.90;;;;;;5074556;28;20247;-80
2023/09/03 12:56:12;;;;;;;0.70;0.70;;;24.20;99.90;;;;;;5074451;28;20776;-79